Norwegian Breakaway — C6ZJ3 — position and weather

sailwx.info

Track history (hours):
 
Tides and Currents Weather Stations Pressure Air Temp Water Temp Dewpoint Dewpoint Depression Visibility Wind Speed Wind Dir Waves Ship Positions

Norwegian Breakaway

Last reported at 2019-Sep-15 22:04 UTC. Time now 2019-Sep-17 08:39 UTC.
Position N 25°28' W 079°46'.

Length 325 m; draft 8.6 m.

Type: Passenger vessel. MMSI: 311050800.

Date/timePositionNaut miles runAvg speedWind from/ knotsBaromVisibWave heightAir tempDewpointWater temp
2019-Sep-15 22:04N 25°28' W 079°46'117.0
2019-Sep-15 22:00N 25°28' W 079°47'917.4
2019-Sep-15 21:30N 25°35' W 079°52'918.6
2019-Sep-15 21:00N 25°43' W 079°59'714.4
2019-Sep-15 20:31N 25°46' W 080°06'4 8.2
2019-Sep-15 20:00N 25°47' W 080°10'0 0.0
2019-Sep-15 19:28N 25°47' W 080°10'0 0.0
2019-Sep-15 18:58N 25°47' W 080°10'0 0.0
2019-Sep-15 18:28N 25°47' W 080°10'0 0.0
2019-Sep-15 17:58N 25°47' W 080°10'0 0.0
2019-Sep-15 17:28N 25°47' W 080°10'0 0.0
2019-Sep-15 16:58N 25°47' W 080°10'0 0.0
2019-Sep-15 16:28N 25°47' W 080°10'0 0.0
2019-Sep-15 15:58N 25°47' W 080°10'0 0.0
2019-Sep-15 15:28N 25°47' W 080°10'0 0.0
2019-Sep-15 14:58N 25°47' W 080°10'0 0.0
2019-Sep-15 14:28N 25°47' W 080°10'0 0.0
2019-Sep-15 13:58N 25°47' W 080°10'0 0.0
2019-Sep-15 13:28N 25°47' W 080°10'0 0.0
2019-Sep-15 12:58N 25°47' W 080°10'0 0.0
2019-Sep-15 12:28N 25°47' W 080°10'0 0.0
2019-Sep-15 11:58N 25°47' W 080°10'0 0.0
2019-Sep-15 11:28N 25°47' W 080°10'0 0.0
2019-Sep-15 10:58N 25°47' W 080°10'0 0.0
2019-Sep-15 10:31N 25°47' W 080°10'0 1.0
2019-Sep-15 10:01N 25°47' W 080°11'2 4.4
2019-Sep-15 09:30N 25°46' W 080°09'612.8
2019-Sep-15 09:00N 25°46' W 080°02'611.5
2019-Sep-15 08:31N 25°43' W 079°56'714.8
2019-Sep-15 08:00N 25°37' W 079°51'815.1
2019-Sep-15 07:31N 25°30' W 079°47'815.2
2019-Sep-15 07:01N 25°24' W 079°42'815.2
2019-Sep-15 06:30N 25°18' W 079°37'  
2019-Sep-12 23:27N 19°32' W 065°16'2121.6
2019-Sep-12 22:30N 19°15' W 065°03'1121.5
2019-Sep-12 22:01N 19°07' W 064°56'1121.3
2019-Sep-12 21:31N 18°58' W 064°50'1121.2
2019-Sep-12 21:01N 18°49' W 064°43'1121.3
2019-Sep-12 20:31N 18°40' W 064°37'33 1.7
2019-Sep-12 01:14N 18°07' W 064°36'3 8.0
2019-Sep-12 00:50N 18°08' W 064°39'5 8.0
2019-Sep-12 00:13N 18°09' W 064°44'2 8.3
2019-Sep-12 00:00N 18°09' W 064°46'4 8.0
2019-Sep-11 23:30N 18°10' W 064°50'4 7.5
2019-Sep-11 23:00N 18°12' W 064°53'4 8.6
2019-Sep-11 22:30N 18°16' W 064°55'4 7.5
2019-Sep-11 22:00N 18°20' W 064°56'0 0.5
2019-Sep-11 21:26N 18°20' W 064°55'0 0.0
2019-Sep-11 20:56N 18°20' W 064°55'0 0.0
2019-Sep-11 20:26N 18°20' W 064°55'0 0.0
2019-Sep-11 19:38N 18°20' W 064°55'0 0.0
2019-Sep-11 19:20N 18°20' W 064°55'0 0.0
2019-Sep-11 18:56N 18°20' W 064°55'0 0.0
2019-Sep-11 18:26N 18°20' W 064°55'0 0.0
2019-Sep-11 17:56N 18°20' W 064°55'0 0.0
2019-Sep-11 17:20N 18°20' W 064°55'0 0.0
2019-Sep-11 16:56N 18°20' W 064°55'0 0.0
2019-Sep-11 16:26N 18°20' W 064°55'0 0.0
2019-Sep-11 15:56N 18°20' W 064°55'0 0.0
2019-Sep-11 15:26N 18°20' W 064°55'0 0.0
2019-Sep-11 14:55N 18°20' W 064°55'0 0.0
2019-Sep-11 14:25N 18°20' W 064°55'0 0.0
2019-Sep-11 13:55N 18°20' W 064°55'0 0.0
2019-Sep-11 13:27N 18°20' W 064°55'0 0.0
2019-Sep-11 12:57N 18°20' W 064°55'0 0.0
2019-Sep-11 12:16N 18°20' W 064°55'0 0.0
2019-Sep-11 12:01N 18°20' W 064°55'0 0.8
2019-Sep-11 11:30N 18°20' W 064°56'4 7.3
2019-Sep-11 11:00N 18°16' W 064°56'5 9.0
2019-Sep-11 10:31N 18°16' W 065°01'612.3
2019-Sep-11 10:00N 18°19' W 065°06'713.2
2019-Sep-11 09:31N 18°24' W 065°10'713.5
2019-Sep-11 09:00N 18°30' W 065°14'714.0
2019-Sep-11 08:30N 18°35' W 065°19'713.6
2019-Sep-11 08:00N 18°39' W 065°25'713.7
2019-Sep-11 07:30N 18°40' W 065°32'713.6
2019-Sep-11 07:00N 18°41' W 065°39'713.4
2019-Sep-11 06:30N 18°41' W 065°46'713.4
2019-Sep-11 05:59N 18°42' W 065°54'712.7
2019-Sep-11 05:27N 18°41' W 066°01'715.0
2019-Sep-11 05:00N 18°35' W 066°04'713.9
2019-Sep-11 04:30N 18°29' W 066°08'1 2.3
2019-Sep-11 03:57N 18°28' W 066°07'0 0.0
2019-Sep-11 03:30N 18°28' W 066°07'0 0.0
2019-Sep-11 03:00N 18°28' W 066°07'0 0.0
2019-Sep-11 02:30N 18°28' W 066°07'0 0.0
2019-Sep-11 02:00N 18°28' W 066°07'0 0.0
2019-Sep-11 01:30N 18°28' W 066°07'0 0.0
2019-Sep-11 01:00N 18°28' W 066°07'0 0.0
2019-Sep-11 00:30N 18°28' W 066°07'0 0.0
2019-Sep-10 23:57N 18°28' W 066°07'0 0.0
2019-Sep-10 23:30N 18°28' W 066°07'0 0.0
2019-Sep-10 23:00N 18°28' W 066°07'0 0.0
2019-Sep-10 22:30N 18°28' W 066°07'0 0.0
2019-Sep-10 22:00N 18°28' W 066°07'0 0.0
2019-Sep-10 21:30N 18°28' W 066°07'0 0.0
2019-Sep-10 21:00N 18°28' W 066°07'0 0.0
2019-Sep-10 20:30N 18°28' W 066°07'0 0.0
2019-Sep-10 19:57N 18°28' W 066°07'0 0.0
2019-Sep-10 19:30N 18°28' W 066°07'0 0.1
2019-Sep-10 19:00N 18°28' W 066°07'1 2.8
2019-Sep-10 18:30N 18°29' W 066°08'713.0
2019-Sep-10 18:00N 18°35' W 066°09'86420.0
2019-Sep-08 22:49N 26°06' W 079°26'721.1
2019-Sep-08 22:30N 26°02' W 079°32'1021.2
2019-Sep-08 22:00N 25°57' W 079°42'1021.0
2019-Sep-08 21:30N 25°53' W 079°53'1020.1
2019-Sep-08 21:00N 25°48' W 080°03'611.5
2019-Sep-08 20:30N 25°46' W 080°09'2 3.6
2019-Sep-08 19:58N 25°47' W 080°10'0 0.0
2019-Sep-08 19:28N 25°47' W 080°10'0 0.0
2019-Sep-08 18:58N 25°47' W 080°10'0 0.0
2019-Sep-08 18:28N 25°47' W 080°10'0 0.0
2019-Sep-08 17:58N 25°47' W 080°10'0 0.0
2019-Sep-08 17:28N 25°47' W 080°10'0 0.0
2019-Sep-08 16:58N 25°47' W 080°10'0 0.0
2019-Sep-08 16:28N 25°47' W 080°10'0 0.0
2019-Sep-08 15:58N 25°47' W 080°10'0 0.0
2019-Sep-08 15:28N 25°47' W 080°10'0 0.0
2019-Sep-08 14:58N 25°47' W 080°10'0 0.0
2019-Sep-08 14:28N 25°47' W 080°10'0 0.0
2019-Sep-08 13:58N 25°47' W 080°10'1 1.1
2019-Sep-08 13:30N 25°47' W 080°11'1 1.0
2019-Sep-08 12:58N 25°47' W 080°10'0 0.0
2019-Sep-08 12:28N 25°47' W 080°10'0 0.0
2019-Sep-08 11:58N 25°47' W 080°10'0 0.0
2019-Sep-08 11:28N 25°47' W 080°10'0 0.0
2019-Sep-08 10:58N 25°47' W 080°10'0 0.0
2019-Sep-08 10:28N 25°47' W 080°10'0 0.0
2019-Sep-08 09:58N 25°47' W 080°10'0 0.0
2019-Sep-08 09:28N 25°47' W 080°10'0 0.0
2019-Sep-08 08:58N 25°47' W 080°10'0 0.0
2019-Sep-08 08:28N 25°47' W 080°10'0 0.0
2019-Sep-08 07:58N 25°47' W 080°10'0 0.0
2019-Sep-08 07:28N 25°47' W 080°10'0 0.0
2019-Sep-08 06:58N 25°47' W 080°10'0 0.0
2019-Sep-08 06:28N 25°47' W 080°10'0 0.0
2019-Sep-08 05:58N 25°47' W 080°10'0 0.0
2019-Sep-08 05:28N 25°47' W 080°10'0 0.0
2019-Sep-08 04:58N 25°47' W 080°10'0 0.0
2019-Sep-08 04:28N 25°47' W 080°10'0 0.0
2019-Sep-08 03:58N 25°47' W 080°10'0 0.0
2019-Sep-08 03:28N 25°47' W 080°10'0 0.0
2019-Sep-08 02:58N 25°47' W 080°10'0 0.0
2019-Sep-08 02:28N 25°47' W 080°10'0 0.0
2019-Sep-08 01:58N 25°47' W 080°10'0 0.0
2019-Sep-08 01:29N 25°47' W 080°10'0 0.9
2019-Sep-08 01:00N 25°47' W 080°11'2 4.8
2019-Sep-08 00:31N 25°46' W 080°08'612.3
2019-Sep-08 00:00N 25°47' W 080°02'612.8
2019-Sep-07 23:30N 25°50' W 079°56'714.8
2019-Sep-07 23:00N 25°55' W 079°49'612.1
2019-Sep-07 22:30N 25°58' W 079°43'5 9.4
2019-Sep-07 22:00N 25°59' W 079°38'5 9.9
2019-Sep-07 21:30N 26°02' W 079°34'5 9.9
2019-Sep-07 21:00N 26°05' W 079°29'611.8
2019-Sep-07 20:29N 26°09' W 079°24'713.7
2019-Sep-07 19:58N 26°13' W 079°17'815.6
2019-Sep-07 19:26N 26°13' W 079°08'69 2.1
2019-Sep-06 10:23N 25°50' W 077°55'0 0.9
2019-Sep-06 10:00N 25°50' W 077°55'6516.1
2019-Sep-06 06:00N 26°12' W 079°03'1816.7
2019-Sep-06 04:57N 26°08' W 079°22'716.4
2019-Sep-06 04:30N 26°05' W 079°29'816.4
2019-Sep-06 04:00N 26°00' W 079°37'917.3
2019-Sep-06 03:30N 25°56' W 079°45'917.3
2019-Sep-06 03:00N 25°52' W 079°54'816.4
2019-Sep-06 02:30N 25°49' W 080°02'611.8
2019-Sep-06 02:00N 25°46' W 080°07'4 7.0
2019-Sep-06 01:31N 25°47' W 080°11'0 0.7
2019-Sep-06 00:58N 25°47' W 080°11'0 0.0
2019-Sep-06 00:28N 25°47' W 080°11'0 0.0
2019-Sep-05 23:58N 25°47' W 080°11'0 0.0
2019-Sep-05 23:28N 25°47' W 080°11'0 0.0
2019-Sep-05 22:58N 25°47' W 080°11'0 0.0
2019-Sep-05 22:28N 25°47' W 080°11'  
Track history (hours):
 
Tides and Currents Weather Stations Pressure Air Temp Water Temp Dewpoint Dewpoint Depression Visibility Wind Speed Wind Dir Waves Ship Positions

Norwegian Breakaway

Last reported at 2019-Sep-15 22:04 UTC. Time now 2019-Sep-17 08:39 UTC.
Position N 25°28' W 079°46'.

Length 325 m; draft 8.6 m.

Type: Passenger vessel. MMSI: 311050800.

Date/timePositionNaut miles runAvg speedWind from/ knotsBaromVisibWave heightAir tempDewpointWater temp
2019-Sep-15 22:04N 25°28' W 079°46'117.0
2019-Sep-15 22:00N 25°28' W 079°47'917.4
2019-Sep-15 21:30N 25°35' W 079°52'918.6
2019-Sep-15 21:00N 25°43' W 079°59'714.4
2019-Sep-15 20:31N 25°46' W 080°06'4 8.2
2019-Sep-15 20:00N 25°47' W 080°10'0 0.0
2019-Sep-15 19:28N 25°47' W 080°10'0 0.0
2019-Sep-15 18:58N 25°47' W 080°10'0 0.0
2019-Sep-15 18:28N 25°47' W 080°10'0 0.0
2019-Sep-15 17:58N 25°47' W 080°10'0 0.0
2019-Sep-15 17:28N 25°47' W 080°10'0 0.0
2019-Sep-15 16:58N 25°47' W 080°10'0 0.0
2019-Sep-15 16:28N 25°47' W 080°10'0 0.0
2019-Sep-15 15:58N 25°47' W 080°10'0 0.0
2019-Sep-15 15:28N 25°47' W 080°10'0 0.0
2019-Sep-15 14:58N 25°47' W 080°10'0 0.0
2019-Sep-15 14:28N 25°47' W 080°10'0 0.0
2019-Sep-15 13:58N 25°47' W 080°10'0 0.0
2019-Sep-15 13:28N 25°47' W 080°10'0 0.0
2019-Sep-15 12:58N 25°47' W 080°10'0 0.0
2019-Sep-15 12:28N 25°47' W 080°10'0 0.0
2019-Sep-15 11:58N 25°47' W 080°10'0 0.0
2019-Sep-15 11:28N 25°47' W 080°10'0 0.0
2019-Sep-15 10:58N 25°47' W 080°10'0 0.0
2019-Sep-15 10:31N 25°47' W 080°10'0 1.0
2019-Sep-15 10:01N 25°47' W 080°11'2 4.4
2019-Sep-15 09:30N 25°46' W 080°09'612.8
2019-Sep-15 09:00N 25°46' W 080°02'611.5
2019-Sep-15 08:31N 25°43' W 079°56'714.8
2019-Sep-15 08:00N 25°37' W 079°51'815.1
2019-Sep-15 07:31N 25°30' W 079°47'815.2
2019-Sep-15 07:01N 25°24' W 079°42'815.2
2019-Sep-15 06:30N 25°18' W 079°37'  
2019-Sep-12 23:27N 19°32' W 065°16'2121.6
2019-Sep-12 22:30N 19°15' W 065°03'1121.5
2019-Sep-12 22:01N 19°07' W 064°56'1121.3
2019-Sep-12 21:31N 18°58' W 064°50'1121.2
2019-Sep-12 21:01N 18°49' W 064°43'1121.3
2019-Sep-12 20:31N 18°40' W 064°37'33 1.7
2019-Sep-12 01:14N 18°07' W 064°36'3 8.0
2019-Sep-12 00:50N 18°08' W 064°39'5 8.0
2019-Sep-12 00:13N 18°09' W 064°44'2 8.3
2019-Sep-12 00:00N 18°09' W 064°46'4 8.0
2019-Sep-11 23:30N 18°10' W 064°50'4 7.5
2019-Sep-11 23:00N 18°12' W 064°53'4 8.6
2019-Sep-11 22:30N 18°16' W 064°55'4 7.5
2019-Sep-11 22:00N 18°20' W 064°56'0 0.5
2019-Sep-11 21:26N 18°20' W 064°55'0 0.0
2019-Sep-11 20:56N 18°20' W 064°55'0 0.0
2019-Sep-11 20:26N 18°20' W 064°55'0 0.0
2019-Sep-11 19:38N 18°20' W 064°55'0 0.0
2019-Sep-11 19:20N 18°20' W 064°55'0 0.0
2019-Sep-11 18:56N 18°20' W 064°55'0 0.0
2019-Sep-11 18:26N 18°20' W 064°55'0 0.0
2019-Sep-11 17:56N 18°20' W 064°55'0 0.0
2019-Sep-11 17:20N 18°20' W 064°55'0 0.0
2019-Sep-11 16:56N 18°20' W 064°55'0 0.0
2019-Sep-11 16:26N 18°20' W 064°55'0 0.0
2019-Sep-11 15:56N 18°20' W 064°55'0 0.0
2019-Sep-11 15:26N 18°20' W 064°55'0 0.0
2019-Sep-11 14:55N 18°20' W 064°55'0 0.0
2019-Sep-11 14:25N 18°20' W 064°55'0 0.0
2019-Sep-11 13:55N 18°20' W 064°55'0 0.0
2019-Sep-11 13:27N 18°20' W 064°55'0 0.0
2019-Sep-11 12:57N 18°20' W 064°55'0 0.0
2019-Sep-11 12:16N 18°20' W 064°55'0 0.0
2019-Sep-11 12:01N 18°20' W 064°55'0 0.8
2019-Sep-11 11:30N 18°20' W 064°56'4 7.3
2019-Sep-11 11:00N 18°16' W 064°56'5 9.0
2019-Sep-11 10:31N 18°16' W 065°01'612.3
2019-Sep-11 10:00N 18°19' W 065°06'713.2
2019-Sep-11 09:31N 18°24' W 065°10'713.5
2019-Sep-11 09:00N 18°30' W 065°14'714.0
2019-Sep-11 08:30N 18°35' W 065°19'713.6
2019-Sep-11 08:00N 18°39' W 065°25'713.7
2019-Sep-11 07:30N 18°40' W 065°32'713.6
2019-Sep-11 07:00N 18°41' W 065°39'713.4
2019-Sep-11 06:30N 18°41' W 065°46'713.4
2019-Sep-11 05:59N 18°42' W 065°54'712.7
2019-Sep-11 05:27N 18°41' W 066°01'715.0
2019-Sep-11 05:00N 18°35' W 066°04'713.9
2019-Sep-11 04:30N 18°29' W 066°08'1 2.3
2019-Sep-11 03:57N 18°28' W 066°07'0 0.0
2019-Sep-11 03:30N 18°28' W 066°07'0 0.0
2019-Sep-11 03:00N 18°28' W 066°07'0 0.0
2019-Sep-11 02:30N 18°28' W 066°07'0 0.0
2019-Sep-11 02:00N 18°28' W 066°07'0 0.0
2019-Sep-11 01:30N 18°28' W 066°07'0 0.0
2019-Sep-11 01:00N 18°28' W 066°07'0 0.0
2019-Sep-11 00:30N 18°28' W 066°07'0 0.0
2019-Sep-10 23:57N 18°28' W 066°07'0 0.0
2019-Sep-10 23:30N 18°28' W 066°07'0 0.0
2019-Sep-10 23:00N 18°28' W 066°07'0 0.0
2019-Sep-10 22:30N 18°28' W 066°07'0 0.0
2019-Sep-10 22:00N 18°28' W 066°07'0 0.0
2019-Sep-10 21:30N 18°28' W 066°07'0 0.0
2019-Sep-10 21:00N 18°28' W 066°07'0 0.0
2019-Sep-10 20:30N 18°28' W 066°07'0 0.0
2019-Sep-10 19:57N 18°28' W 066°07'0 0.0
2019-Sep-10 19:30N 18°28' W 066°07'0 0.1
2019-Sep-10 19:00N 18°28' W 066°07'1 2.8
2019-Sep-10 18:30N 18°29' W 066°08'713.0
2019-Sep-10 18:00N 18°35' W 066°09'86420.0
2019-Sep-08 22:49N 26°06' W 079°26'721.1
2019-Sep-08 22:30N 26°02' W 079°32'1021.2
2019-Sep-08 22:00N 25°57' W 079°42'1021.0
2019-Sep-08 21:30N 25°53' W 079°53'1020.1
2019-Sep-08 21:00N 25°48' W 080°03'611.5
2019-Sep-08 20:30N 25°46' W 080°09'2 3.6
2019-Sep-08 19:58N 25°47' W 080°10'0 0.0
2019-Sep-08 19:28N 25°47' W 080°10'0 0.0
2019-Sep-08 18:58N 25°47' W 080°10'0 0.0
2019-Sep-08 18:28N 25°47' W 080°10'0 0.0
2019-Sep-08 17:58N 25°47' W 080°10'0 0.0
2019-Sep-08 17:28N 25°47' W 080°10'0 0.0
2019-Sep-08 16:58N 25°47' W 080°10'0 0.0
2019-Sep-08 16:28N 25°47' W 080°10'0 0.0
2019-Sep-08 15:58N 25°47' W 080°10'0 0.0
2019-Sep-08 15:28N 25°47' W 080°10'0 0.0
2019-Sep-08 14:58N 25°47' W 080°10'0 0.0
2019-Sep-08 14:28N 25°47' W 080°10'0 0.0
2019-Sep-08 13:58N 25°47' W 080°10'1 1.1
2019-Sep-08 13:30N 25°47' W 080°11'1 1.0
2019-Sep-08 12:58N 25°47' W 080°10'0 0.0
2019-Sep-08 12:28N 25°47' W 080°10'0 0.0
2019-Sep-08 11:58N 25°47' W 080°10'0 0.0
2019-Sep-08 11:28N 25°47' W 080°10'0 0.0
2019-Sep-08 10:58N 25°47' W 080°10'0 0.0
2019-Sep-08 10:28N 25°47' W 080°10'0 0.0
2019-Sep-08 09:58N 25°47' W 080°10'0 0.0
2019-Sep-08 09:28N 25°47' W 080°10'0 0.0
2019-Sep-08 08:58N 25°47' W 080°10'0 0.0
2019-Sep-08 08:28N 25°47' W 080°10'0 0.0
2019-Sep-08 07:58N 25°47' W 080°10'0 0.0
2019-Sep-08 07:28N 25°47' W 080°10'0 0.0
2019-Sep-08 06:58N 25°47' W 080°10'0 0.0
2019-Sep-08 06:28N 25°47' W 080°10'0 0.0
2019-Sep-08 05:58N 25°47' W 080°10'0 0.0
2019-Sep-08 05:28N 25°47' W 080°10'0 0.0
2019-Sep-08 04:58N 25°47' W 080°10'0 0.0
2019-Sep-08 04:28N 25°47' W 080°10'0 0.0
2019-Sep-08 03:58N 25°47' W 080°10'0 0.0
2019-Sep-08 03:28N 25°47' W 080°10'0 0.0
2019-Sep-08 02:58N 25°47' W 080°10'0 0.0
2019-Sep-08 02:28N 25°47' W 080°10'0 0.0
2019-Sep-08 01:58N 25°47' W 080°10'0 0.0
2019-Sep-08 01:29N 25°47' W 080°10'0 0.9
2019-Sep-08 01:00N 25°47' W 080°11'2 4.8
2019-Sep-08 00:31N 25°46' W 080°08'612.3
2019-Sep-08 00:00N 25°47' W 080°02'612.8
2019-Sep-07 23:30N 25°50' W 079°56'714.8
2019-Sep-07 23:00N 25°55' W 079°49'612.1
2019-Sep-07 22:30N 25°58' W 079°43'5 9.4
2019-Sep-07 22:00N 25°59' W 079°38'5 9.9
2019-Sep-07 21:30N 26°02' W 079°34'5 9.9
2019-Sep-07 21:00N 26°05' W 079°29'611.8
2019-Sep-07 20:29N 26°09' W 079°24'713.7
2019-Sep-07 19:58N 26°13' W 079°17'815.6
2019-Sep-07 19:26N 26°13' W 079°08'69 2.1
2019-Sep-06 10:23N 25°50' W 077°55'0 0.9
2019-Sep-06 10:00N 25°50' W 077°55'6516.1
2019-Sep-06 06:00N 26°12' W 079°03'1816.7
2019-Sep-06 04:57N 26°08' W 079°22'716.4
2019-Sep-06 04:30N 26°05' W 079°29'816.4
2019-Sep-06 04:00N 26°00' W 079°37'917.3
2019-Sep-06 03:30N 25°56' W 079°45'917.3
2019-Sep-06 03:00N 25°52' W 079°54'816.4
2019-Sep-06 02:30N 25°49' W 080°02'611.8
2019-Sep-06 02:00N 25°46' W 080°07'4 7.0
2019-Sep-06 01:31N 25°47' W 080°11'0 0.7
2019-Sep-06 00:58N 25°47' W 080°11'0 0.0
2019-Sep-06 00:28N 25°47' W 080°11'0 0.0
2019-Sep-05 23:58N 25°47' W 080°11'0 0.0
2019-Sep-05 23:28N 25°47' W 080°11'0 0.0
2019-Sep-05 22:58N 25°47' W 080°11'0 0.0
2019-Sep-05 22:28N 25°47' W 080°11'  

Dump ship's entire track history